Time;durP1;ratioP1;P1;durP2;ratioP2;P2;SDS_P1;SDS_P2;PMS_P1;PMS_P2;Temp;Humidity;BMP_temperature;BMP_pressure;BME280_temperature;BME280_humidity;BME280_pressure;Samples;Min_cycle;Max_cycle;Signal;HPM_P1;HPM_P2
2023/12/26 00:01:48;;;;;;;;;1.00;1.00;;;;;12.17;67.89;101283.91;5056251;28;46017;-58
2023/12/26 00:04:15;;;;;;;;;1.00;1.00;;;;;12.17;67.59;101278.56;5059950;28;45615;-58
2023/12/26 00:06:43;;;;;;;;;3.00;1.00;;;;;12.16;67.88;101275.03;5052388;28;45608;-58
2023/12/26 00:09:09;;;;;;;;;1.00;1.00;;;;;12.15;67.87;101277.75;5060180;28;47167;-58
2023/12/26 00:11:40;;;;;;;;;1.67;1.67;;;;;12.13;67.72;101277.84;5060789;28;46767;-58
2023/12/26 00:14:06;;;;;;;;;2.00;1.00;;;;;12.13;67.25;101267.16;5060172;28;45320;-58
2023/12/26 00:16:31;;;;;;;;;1.00;1.00;;;;;12.15;67.43;101275.09;5058833;28;69751;-58
2023/12/26 00:18:57;;;;;;;;;2.00;0.00;;;;;12.15;67.46;101275.97;5060268;28;46417;-58
2023/12/26 00:21:22;;;;;;;;;4.00;1.00;;;;;12.15;67.75;101270.63;5059334;28;45347;-58
2023/12/26 00:23:47;;;;;;;;;0.67;0.67;;;;;12.15;67.27;101270.63;5060762;28;45904;-58
2023/12/26 00:26:13;;;;;;;;;3.67;0.33;;;;;12.12;67.47;101254.78;5065467;28;60512;-59
2023/12/26 00:28:38;;;;;;;;;3.00;1.00;;;;;12.12;67.36;101260.09;5059246;28;75323;-58
2023/12/26 00:31:04;;;;;;;;;0.67;0.67;;;;;12.08;66.72;101253.19;5058767;28;71386;-58
2023/12/26 00:33:29;;;;;;;;;1.00;1.00;;;;;12.07;66.42;101252.34;5060732;28;45329;-58
2023/12/26 00:35:56;;;;;;;;;2.33;1.33;;;;;12.08;67.29;101258.53;5059175;28;69154;-58
2023/12/26 00:38:23;;;;;;;;;2.00;1.00;;;;;12.09;67.17;101254.94;5060099;28;46184;-58
2023/12/26 00:40:48;;;;;;;;;1.00;1.00;;;;;12.08;66.67;101254.09;5044112;28;45596;-58
2023/12/26 00:43:13;;;;;;;;;1.00;1.00;;;;;12.07;67.00;101251.47;5060188;28;45428;-58
2023/12/26 00:45:39;;;;;;;;;4.67;2.00;;;;;12.07;67.27;101247.00;5059724;28;70278;-58
2023/12/26 00:48:04;;;;;;;;;0.33;0.00;;;;;12.05;66.82;101248.88;5059838;28;45332;-58
2023/12/26 00:50:30;;;;;;;;;1.00;1.00;;;;;12.03;66.91;101245.44;5060234;28;45312;-58
2023/12/26 00:52:55;;;;;;;;;0.67;0.67;;;;;12.04;67.19;101240.97;5059704;28;68896;-58
2023/12/26 00:55:22;;;;;;;;;1.00;1.00;;;;;12.02;66.54;101248.16;5075970;28;45273;-58
2023/12/26 00:57:47;;;;;;;;;1.00;1.00;;;;;12.00;66.89;101242.91;5059784;28;46565;-58
2023/12/26 01:00:14;;;;;;;;;2.00;1.00;;;;;11.96;66.92;101243.16;5041616;28;45272;-58
2023/12/26 01:02:39;;;;;;;;;1.00;0.00;;;;;11.92;66.87;101248.59;5027291;28;45232;-58
2023/12/26 01:05:05;;;;;;;;;1.00;1.00;;;;;11.89;67.18;101239.91;5058839;28;45348;-59
2023/12/26 01:07:30;;;;;;;;;2.00;1.00;;;;;11.85;67.16;101252.50;5053306;28;46198;-58
2023/12/26 01:09:55;;;;;;;;;1.00;1.00;;;;;11.84;66.68;101249.91;5059206;28;45447;-58
2023/12/26 01:12:21;;;;;;;;;3.67;1.00;;;;;11.84;67.34;101245.44;5060122;28;45276;-58
2023/12/26 01:14:46;;;;;;;;;2.00;2.00;;;;;11.83;67.54;101246.38;5043074;28;45471;-58
2023/12/26 01:17:11;;;;;;;;;1.00;0.00;;;;;11.81;67.16;101239.38;5059827;28;46563;-59
2023/12/26 01:19:37;;;;;;;;;1.67;0.00;;;;;11.80;67.32;101230.53;5040675;28;69247;-59
2023/12/26 01:22:02;;;;;;;;;1.00;1.00;;;;;11.77;67.03;101233.31;5059799;28;45359;-58
2023/12/26 01:24:28;;;;;;;;;0.00;0.00;;;;;11.77;67.35;101232.47;5056346;28;45252;-58
2023/12/26 01:26:53;;;;;;;;;1.00;1.00;;;;;11.78;67.25;101240.38;5058255;28;59709;-58
2023/12/26 01:29:19;;;;;;;;;0.00;0.00;;;;;11.80;67.24;101233.19;5058556;28;45712;-58
2023/12/26 01:31:44;;;;;;;;;0.33;0.33;;;;;11.84;67.44;101236.59;5059750;28;45381;-58
2023/12/26 01:34:09;;;;;;;;;4.67;1.00;;;;;11.86;67.34;101240.03;5057953;28;70001;-58
2023/12/26 01:36:35;;;;;;;;;3.00;1.00;;;;;11.89;67.49;101237.22;5058574;28;74196;-58
2023/12/26 01:39:00;;;;;;;;;1.00;0.67;;;;;11.89;67.20;101238.06;5090792;27;45445;-58
2023/12/26 01:41:26;;;;;;;;;2.67;1.00;;;;;11.89;67.11;101232.75;5059624;28;45501;-58
2023/12/26 01:43:51;;;;;;;;;2.33;1.00;;;;;11.89;67.31;101235.41;5057860;28;45245;-58
2023/12/26 01:46:17;;;;;;;;;1.00;1.00;;;;;11.88;67.46;101228.34;5059409;28;45473;-58
2023/12/26 01:48:47;;;;;;;;;0.00;0.00;;;;;11.89;67.48;101235.41;5058605;28;70023;-58
2023/12/26 01:51:15;;;;;;;;;0.00;0.00;;;;;11.87;67.53;101229.28;5057770;28;45466;-58
2023/12/26 01:53:40;;;;;;;;;2.00;0.00;;;;;11.87;67.53;101231.09;5060684;28;45295;-58
2023/12/26 01:56:08;;;;;;;;;0.67;0.67;;;;;11.87;67.85;101237.28;5057958;28;73380;-58
2023/12/26 01:58:35;;;;;;;;;0.33;0.33;;;;;11.86;67.60;101235.56;5058881;28;45436;-58
2023/12/26 02:01:01;;;;;;;;;0.00;0.00;;;;;11.84;67.79;101234.78;5059078;28;45442;-58
2023/12/26 02:03:26;;;;;;;;;1.00;1.00;;;;;11.83;67.81;101229.53;5059001;28;45244;-58
2023/12/26 02:05:52;;;;;;;;;1.00;1.00;;;;;11.79;67.81;101227.94;5050460;28;74611;-59
2023/12/26 02:08:17;;;;;;;;;2.33;0.00;;;;;11.75;68.15;101236.06;5057835;28;73024;-58
2023/12/26 02:10:43;;;;;;;;;1.00;1.00;;;;;11.74;68.19;101236.16;5058331;28;69289;-58
2023/12/26 02:13:08;;;;;;;;;1.00;1.00;;;;;11.73;68.06;101239.75;5057488;28;70522;-58
2023/12/26 02:15:33;;;;;;;;;0.00;0.00;;;;;11.70;68.34;101243.41;5058356;28;68549;-58
2023/12/26 02:17:59;;;;;;;;;3.00;1.00;;;;;11.68;68.44;101247.09;5057398;28;72347;-58
2023/12/26 02:20:24;;;;;;;;;1.00;0.00;;;;;11.67;68.40;101251.56;5091137;27;65038;-58
2023/12/26 02:22:49;;;;;;;;;1.00;1.00;;;;;11.66;68.64;101249.84;5058224;28;46442;-58
2023/12/26 02:25:16;;;;;;;;;1.00;1.00;;;;;11.66;68.55;101247.16;5064167;28;46163;-58
2023/12/26 02:27:42;;;;;;;;;1.00;1.00;;;;;11.65;68.59;101253.44;5057194;28;45509;-58
2023/12/26 02:30:08;;;;;;;;;0.00;0.00;;;;;11.65;68.69;101260.56;5058422;28;45425;-58
2023/12/26 02:32:36;;;;;;;;;0.00;0.00;;;;;11.65;68.91;101269.41;5057345;28;45283;-58
2023/12/26 02:35:05;;;;;;;;;1.00;0.00;;;;;11.68;68.91;101265.75;5073630;28;48393;-58
2023/12/26 02:37:30;;;;;;;;;3.00;1.33;;;;;11.70;68.90;101262.06;5056310;28;45472;-58
2023/12/26 02:39:55;;;;;;;;;3.00;1.00;;;;;11.72;69.05;101262.88;5059801;28;45229;-58
2023/12/26 02:42:22;;;;;;;;;4.00;2.00;;;;;11.76;68.97;101263.59;5062029;28;45507;-58
2023/12/26 02:44:48;;;;;;;;;0.00;0.00;;;;;11.78;68.90;101258.19;5062040;28;45673;-57
2023/12/26 02:47:14;;;;;;;;;2.00;0.00;;;;;11.78;69.04;101259.03;5062219;28;45276;-58
2023/12/26 02:49:39;;;;;;;;;0.00;0.00;;;;;11.78;68.98;101261.72;5062140;28;45507;-57
2023/12/26 02:52:05;;;;;;;;;3.00;1.00;;;;;11.77;68.88;101259.13;5060103;28;45474;-57
2023/12/26 02:54:30;;;;;;;;;3.00;0.00;;;;;11.78;69.07;101258.19;5062620;28;46392;-57
2023/12/26 02:56:55;;;;;;;;;0.33;0.33;;;;;11.78;68.93;101255.53;5058838;28;45346;-57
2023/12/26 02:59:21;;;;;;;;;0.00;0.00;;;;;11.76;69.17;101263.59;5062058;28;45488;-58
2023/12/26 03:01:46;;;;;;;;;0.00;0.00;;;;;11.79;69.25;101254.59;5061305;28;60836;-58
2023/12/26 03:04:12;;;;;;;;;1.00;0.00;;;;;11.79;69.21;101250.13;5091921;27;45972;-57
2023/12/26 03:06:38;;;;;;;;;0.67;0.67;;;;;11.78;69.05;101253.72;5052932;28;45496;-57
2023/12/26 03:09:03;;;;;;;;;4.00;0.33;;;;;11.79;69.15;101257.25;5062007;28;45803;-57
2023/12/26 03:11:29;;;;;;;;;2.33;1.00;;;;;11.80;69.11;101246.53;5060820;28;69426;-57
2023/12/26 03:13:54;;;;;;;;;0.00;0.00;;;;;11.82;69.14;101265.94;5060490;28;73705;-57
2023/12/26 03:16:21;;;;;;;;;0.00;0.00;;;;;11.82;69.27;101255.28;5061712;28;45492;-57
2023/12/26 03:18:46;;;;;;;;;0.00;0.00;;;;;11.85;69.25;101259.63;5061982;28;45300;-57
2023/12/26 03:21:11;;;;;;;;;0.00;0.00;;;;;11.84;69.43;101253.44;5060937;28;54180;-57
2023/12/26 03:23:37;;;;;;;;;0.67;0.67;;;;;11.84;69.12;101266.75;5060573;28;74551;-57
2023/12/26 03:26:02;;;;;;;;;1.67;0.00;;;;;11.85;69.30;101257.81;5064998;28;45390;-57
2023/12/26 03:28:28;;;;;;;;;2.00;0.00;;;;;11.85;69.29;101270.28;5061175;28;45295;-57
2023/12/26 03:30:53;;;;;;;;;1.00;1.00;;;;;11.86;69.32;101266.69;5060620;28;52435;-57
2023/12/26 03:33:18;;;;;;;;;0.00;0.00;;;;;11.87;69.25;101261.25;5060535;28;75493;-57
2023/12/26 03:35:44;;;;;;;;;0.00;0.00;;;;;11.87;69.53;101265.75;5060531;28;66196;-57
2023/12/26 03:38:09;;;;;;;;;0.33;0.33;;;;;11.89;69.56;101259.41;5059857;28;66372;-57
2023/12/26 03:40:34;;;;;;;;;2.00;0.00;;;;;11.89;69.53;101258.56;5061799;28;45257;-57
2023/12/26 03:43:00;;;;;;;;;1.00;0.00;;;;;11.88;69.46;101254.16;5092355;27;74525;-58
2023/12/26 03:45:26;;;;;;;;;2.67;1.00;;;;;11.88;69.46;101249.66;5060382;28;72505;-58
2023/12/26 03:47:52;;;;;;;;;0.67;0.67;;;;;11.86;69.56;101238.25;5060876;28;45381;-58
2023/12/26 03:50:18;;;;;;;;;0.33;0.33;;;;;11.85;69.41;101239.16;5061432;28;45476;-58
2023/12/26 03:52:43;;;;;;;;;1.00;0.00;;;;;11.82;69.63;101241.97;5060313;28;45449;-58
2023/12/26 03:55:10;;;;;;;;;2.67;1.00;;;;;11.82;69.76;101249.09;5059734;28;73030;-57
2023/12/26 03:57:36;;;;;;;;;1.00;1.00;;;;;11.80;69.92;101250.97;5060880;28;45527;-58
2023/12/26 04:00:04;;;;;;;;;2.00;1.00;;;;;11.79;70.11;101258.13;5060853;28;45231;-58
2023/12/26 04:02:29;;;;;;;;;3.33;1.00;;;;;11.78;70.02;101259.03;5059714;28;46186;-58
2023/12/26 04:04:54;;;;;;;;;0.67;0.67;;;;;11.78;70.15;101259.03;5059306;28;73121;-58
2023/12/26 04:07:20;;;;;;;;;1.00;1.00;;;;;11.77;70.26;101264.44;5053835;28;45587;-57
2023/12/26 04:09:45;;;;;;;;;1.00;1.00;;;;;11.76;70.37;101260.94;5060711;28;45441;-61
2023/12/26 04:12:10;;;;;;;;;1.00;1.00;;;;;11.77;70.33;101273.31;5059168;28;49798;-58
2023/12/26 04:14:36;;;;;;;;;2.00;0.33;;;;;11.79;70.43;101268.78;5059446;28;71846;-58
2023/12/26 04:17:01;;;;;;;;;0.33;0.33;;;;;11.81;70.27;101272.25;5059692;28;69594;-58
2023/12/26 04:19:26;;;;;;;;;4.00;1.67;;;;;11.83;70.60;101275.69;5061205;28;45327;-58
2023/12/26 04:21:52;;;;;;;;;1.00;0.67;;;;;11.83;70.40;101267.69;5061397;28;45430;-58
2023/12/26 04:24:17;;;;;;;;;1.00;1.00;;;;;11.83;70.49;101270.34;5059421;28;45413;-57
2023/12/26 04:26:42;;;;;;;;;1.00;0.00;;;;;11.84;70.48;101271.22;5064798;28;69426;-57
2023/12/26 04:29:08;;;;;;;;;1.67;1.67;;;;;11.84;70.69;101272.09;5059520;28;69306;-57
2023/12/26 04:31:33;;;;;;;;;3.00;0.67;;;;;11.85;70.51;101280.94;5092593;27;71767;-57
2023/12/26 04:33:58;;;;;;;;;3.00;1.00;;;;;11.85;70.79;101287.16;5059902;28;49379;-57
2023/12/26 04:36:24;;;;;;;;;0.00;0.00;;;;;11.87;70.88;101289.72;5059660;28;45805;-58
2023/12/26 04:38:49;;;;;;;;;1.33;0.00;;;;;11.88;70.84;101287.00;5093772;27;45455;-57
2023/12/26 04:41:15;;;;;;;;;1.33;0.00;;;;;11.89;70.66;101293.22;5060035;28;73987;-57
2023/12/26 04:43:40;;;;;;;;;1.67;1.00;;;;;11.90;70.94;101300.25;5059467;28;45576;-57
2023/12/26 04:46:05;;;;;;;;;0.00;0.00;;;;;11.89;70.83;101295.88;5060346;28;45667;-57
2023/12/26 04:48:31;;;;;;;;;0.67;0.67;;;;;11.91;71.04;101312.63;5060340;28;45541;-57
2023/12/26 04:50:56;;;;;;;;;2.00;2.00;;;;;11.90;71.06;101301.13;5058814;28;74405;-58
2023/12/26 04:53:24;;;;;;;;;1.67;1.00;;;;;11.89;71.31;101298.53;5058851;28;73216;-58
2023/12/26 04:55:49;;;;;;;;;1.00;0.67;;;;;11.88;71.66;101302.13;5060159;28;45307;-58
2023/12/26 04:58:14;;;;;;;;;2.00;1.00;;;;;11.88;71.51;101297.66;5058656;28;66122;-58
2023/12/26 05:00:40;;;;;;;;;2.00;1.67;;;;;11.89;71.51;101303.88;5059356;28;75901;-58
2023/12/26 05:03:06;;;;;;;;;1.67;0.00;;;;;11.89;71.56;101306.53;5056842;28;45393;-58
2023/12/26 05:05:31;;;;;;;;;0.33;0.00;;;;;11.91;71.50;101313.53;5055927;28;45409;-58
2023/12/26 05:07:56;;;;;;;;;1.00;1.00;;;;;11.92;71.56;101314.38;5055165;28;69271;-58
2023/12/26 05:10:22;;;;;;;;;5.00;1.00;;;;;11.91;71.67;101315.31;5092278;27;61233;-58
2023/12/26 05:12:47;;;;;;;;;3.33;1.00;;;;;11.91;71.51;101313.53;5058391;28;69978;-58
2023/12/26 05:15:12;;;;;;;;;0.00;0.00;;;;;11.92;71.69;101315.22;5059095;28;63421;-58
2023/12/26 05:17:38;;;;;;;;;0.00;0.00;;;;;11.93;71.88;101321.44;5058432;28;45497;-58
2023/12/26 05:20:04;;;;;;;;;4.67;1.00;;;;;11.93;71.75;101324.09;5058533;28;45555;-58
2023/12/26 05:22:29;;;;;;;;;0.00;0.00;;;;;11.94;72.03;101328.47;5059449;28;45330;-57
2023/12/26 05:24:54;;;;;;;;;2.00;0.00;;;;;11.95;72.08;101330.25;5061532;28;65815;-58
2023/12/26 05:27:20;;;;;;;;;0.00;0.00;;;;;11.98;72.19;101329.22;5061132;27;70564;-58
2023/12/26 05:29:45;;;;;;;;;0.00;0.00;;;;;12.00;72.08;101335.38;5059671;28;45361;-58
2023/12/26 05:32:10;;;;;;;;;1.00;1.00;;;;;11.98;72.12;101330.13;5058030;28;69392;-59
2023/12/26 05:34:36;;;;;;;;;0.00;0.00;;;;;11.98;72.31;101334.56;5058927;28;69437;-58
2023/12/26 05:37:01;;;;;;;;;1.00;1.00;;;;;11.97;72.17;101339.03;5060278;28;45306;-58
2023/12/26 05:39:26;;;;;;;;;1.67;0.67;;;;;11.98;72.37;101351.44;5059414;28;58176;-60
2023/12/26 05:41:51;;;;;;;;;1.00;1.00;;;;;11.97;72.41;101357.72;5058114;28;73217;-58
2023/12/26 05:44:17;;;;;;;;;2.00;1.00;;;;;11.95;72.56;101356.91;5058594;28;69429;-59
2023/12/26 05:46:45;;;;;;;;;0.67;0.67;;;;;11.95;72.57;101361.34;5058578;28;69446;-58
2023/12/26 05:49:10;;;;;;;;;3.00;2.00;;;;;11.95;72.44;101369.34;5061541;28;48060;-58
2023/12/26 05:51:36;;;;;;;;;0.33;0.33;;;;;11.96;72.54;101369.31;5059162;28;45508;-58
2023/12/26 05:54:01;;;;;;;;;0.00;0.00;;;;;11.96;72.67;101365.78;5057701;28;67913;-58
2023/12/26 05:56:26;;;;;;;;;1.00;1.00;;;;;11.95;72.77;101372.91;5059031;28;52108;-58
2023/12/26 05:58:52;;;;;;;;;1.00;1.00;;;;;11.96;72.91;101373.78;5056266;28;73388;-58
2023/12/26 06:01:17;;;;;;;;;2.33;1.00;;;;;11.95;73.08;101377.34;5058079;28;72296;-58
2023/12/26 06:03:42;;;;;;;;;1.67;1.67;;;;;11.96;73.06;101368.44;5059187;28;45317;-58
2023/12/26 06:06:10;;;;;;;;;0.00;0.00;;;;;11.95;72.95;101375.56;5050441;28;70350;-58
2023/12/26 06:08:35;;;;;;;;;1.33;0.00;;;;;11.94;73.25;101373.78;5058940;28;46245;-58
2023/12/26 06:11:01;;;;;;;;;1.00;1.00;;;;;11.94;73.16;101383.59;5058064;28;59078;-58
2023/12/26 06:13:27;;;;;;;;;3.00;1.00;;;;;11.96;73.50;101384.44;5058379;28;60607;-58
2023/12/26 06:15:53;;;;;;;;;4.00;1.00;;;;;11.92;73.45;101384.53;5090514;27;45548;-58
2023/12/26 06:18:18;;;;;;;;;1.67;1.00;;;;;11.92;73.50;101381.00;5058904;28;46244;-58
2023/12/26 06:20:43;;;;;;;;;1.00;1.00;;;;;11.96;73.60;101379.13;5058126;28;71870;-58
2023/12/26 06:23:09;;;;;;;;;1.33;0.67;;;;;11.96;73.39;101373.78;5057526;28;69304;-58
2023/12/26 06:25:34;;;;;;;;;0.00;0.00;;;;;11.99;73.78;101368.28;5064915;28;45431;-58
2023/12/26 06:27:59;;;;;;;;;1.33;1.00;;;;;12.01;73.71;101377.09;5058193;28;45345;-58
2023/12/26 06:30:25;;;;;;;;;1.00;1.00;;;;;11.98;73.54;101363.88;5058515;28;49842;-58
2023/12/26 06:32:51;;;;;;;;;1.33;1.00;;;;;11.95;73.78;101364.91;5090402;27;68240;-58
2023/12/26 06:35:16;;;;;;;;;2.67;1.00;;;;;11.94;73.97;101356.94;5058793;28;45409;-58
2023/12/26 06:37:43;;;;;;;;;1.00;1.00;;;;;11.93;74.21;101366.75;5058556;28;46465;-59
2023/12/26 06:40:08;;;;;;;;;1.00;1.00;;;;;11.91;73.95;101374.84;5058168;28;45998;-58
2023/12/26 06:42:34;;;;;;;;;2.00;1.00;;;;;11.91;74.38;101380.16;5059161;28;45377;-59
2023/12/26 06:44:59;;;;;;;;;1.00;1.00;;;;;11.94;74.34;101391.59;5058199;28;46406;-59
2023/12/26 06:47:24;;;;;;;;;0.00;0.00;;;;;11.93;74.48;101398.75;5090486;27;75798;-58
2023/12/26 06:49:53;;;;;;;;;1.00;1.00;;;;;11.94;74.34;101407.59;5058512;28;69708;-59
2023/12/26 06:52:18;;;;;;;;;4.00;1.00;;;;;11.94;74.86;101405.78;5058661;28;45293;-58
2023/12/26 06:54:44;;;;;;;;;1.00;1.00;;;;;11.93;74.54;101401.41;5058460;28;45319;-58
2023/12/26 06:57:15;;;;;;;;;1.00;1.00;;;;;11.93;74.73;101409.41;5056988;28;74868;-59
2023/12/26 06:59:43;;;;;;;;;3.00;1.00;;;;;11.92;74.71;101407.66;5089327;27;45641;-58
2023/12/26 07:02:08;;;;;;;;;2.00;1.00;;;;;11.94;74.71;101405.78;5058545;28;46315;-59
2023/12/26 07:04:33;;;;;;;;;1.67;1.00;;;;;11.96;74.80;101408.44;5056157;28;70458;-58
2023/12/26 07:06:59;;;;;;;;;0.00;0.00;;;;;11.96;74.70;101419.09;5049522;28;73532;-57
2023/12/26 07:09:24;;;;;;;;;1.00;1.00;;;;;11.95;74.53;101422.66;5090885;27;45545;-57
2023/12/26 07:11:51;;;;;;;;;0.00;0.00;;;;;11.94;75.00;101420.94;5057812;28;52799;-58
2023/12/26 07:14:16;;;;;;;;;0.00;0.00;;;;;11.95;74.96;101425.34;5058128;28;45430;-59
2023/12/26 07:16:41;;;;;;;;;1.00;1.00;;;;;11.96;74.97;101440.44;5089950;27;74929;-58
2023/12/26 07:19:07;;;;;;;;;2.00;2.00;;;;;11.94;75.34;101439.59;5056481;28;73230;-58
2023/12/26 07:21:32;;;;;;;;;2.00;0.00;;;;;11.95;75.33;101446.66;5058583;28;45438;-58
2023/12/26 07:23:57;;;;;;;;;3.00;1.00;;;;;11.92;75.41;101445.84;5057156;28;46408;-58
2023/12/26 07:26:23;;;;;;;;;3.00;2.00;;;;;11.94;74.67;101453.78;5064611;28;45507;-58
2023/12/26 07:28:48;;;;;;;;;4.00;1.00;;;;;11.93;75.10;101452.06;5061400;28;45278;-58
2023/12/26 07:31:20;;;;;;;;;1.00;1.00;;;;;11.91;75.06;101452.13;5094206;27;45279;-58
2023/12/26 07:33:47;;;;;;;;;1.00;1.00;;;;;11.90;75.54;101458.41;5061622;28;45264;-58
2023/12/26 07:36:12;;;;;;;;;2.67;1.33;;;;;11.90;75.37;101477.06;5059591;28;46156;-58
2023/12/26 07:38:37;;;;;;;;;1.00;1.00;;;;;11.92;75.66;101483.16;5061020;28;45470;-58
2023/12/26 07:41:03;;;;;;;;;2.33;1.67;;;;;11.92;75.53;101487.66;5060234;28;64821;-57
2023/12/26 07:43:29;;;;;;;;;2.33;1.00;;;;;11.92;75.70;101488.50;5059961;28;45384;-58
2023/12/26 07:45:55;;;;;;;;;1.00;1.00;;;;;11.89;75.76;101496.66;5093446;27;66646;-55
2023/12/26 07:48:21;;;;;;;;;0.00;0.00;;;;;11.87;76.09;101489.66;5063260;28;45296;-55
2023/12/26 07:50:46;;;;;;;;;4.00;1.67;;;;;11.88;75.87;101502.91;5060785;28;66818;-55
2023/12/26 07:53:11;;;;;;;;;2.33;2.33;;;;;11.90;75.53;101516.16;5060559;28;45301;-55
2023/12/26 07:55:37;;;;;;;;;1.00;1.00;;;;;11.87;76.33;101508.31;5060569;28;69104;-55
2023/12/26 07:58:02;;;;;;;;;1.67;0.00;;;;;11.88;76.50;101510.06;5058354;28;66251;-55
2023/12/26 08:00:28;;;;;;;;;0.67;0.67;;;;;11.88;76.62;101513.56;5077231;27;46450;-55
2023/12/26 08:02:53;;;;;;;;;2.67;2.00;;;;;11.89;76.31;101519.78;5058853;28;65285;-55
2023/12/26 08:05:19;;;;;;;;;2.00;1.00;;;;;11.87;76.84;101525.16;5058769;28;45287;-55
2023/12/26 08:07:44;;;;;;;;;1.00;1.00;;;;;11.87;76.55;101537.63;5056474;28;45462;-54
2023/12/26 08:10:10;;;;;;;;;1.00;0.67;;;;;11.87;76.67;101532.31;5059836;28;62890;-54
2023/12/26 08:12:35;;;;;;;;;1.00;1.00;;;;;11.89;76.89;101546.44;5075358;28;45466;-54
2023/12/26 08:15:01;;;;;;;;;0.00;0.00;;;;;11.91;76.96;101552.56;5093382;27;45365;-55
2023/12/26 08:17:26;;;;;;;;;1.00;0.00;;;;;11.94;76.80;101560.41;5060940;28;45272;-55
2023/12/26 08:19:52;;;;;;;;;1.00;1.00;;;;;11.96;76.67;101563.06;5058524;28;69394;-55
2023/12/26 08:22:17;;;;;;;;;1.00;1.00;;;;;11.98;76.90;101559.41;5059879;28;65687;-56
2023/12/26 08:24:42;;;;;;;;;2.00;1.00;;;;;12.00;76.97;101567.31;5062181;28;45468;-55
2023/12/26 08:27:08;;;;;;;;;0.33;0.33;;;;;11.97;76.98;101568.31;5064672;27;59930;-55
2023/12/26 08:29:33;;;;;;;;;1.00;1.00;;;;;11.99;76.77;101569.09;5060908;28;45368;-56
2023/12/26 08:31:58;;;;;;;;;5.33;2.00;;;;;11.99;76.94;101581.59;5091281;27;64202;-55
2023/12/26 08:34:24;;;;;;;;;1.33;1.00;;;;;11.98;76.90;101575.41;5060400;28;68615;-56
2023/12/26 08:36:49;;;;;;;;;1.00;1.00;;;;;11.98;77.55;101578.06;5060196;28;45464;-56
2023/12/26 08:39:14;;;;;;;;;1.00;1.00;;;;;11.97;77.11;101595.00;5058875;28;45312;-56
2023/12/26 08:41:40;;;;;;;;;1.00;1.00;;;;;11.96;77.24;101582.59;5093166;27;45576;-55
2023/12/26 08:44:05;;;;;;;;;1.00;1.00;;;;;11.95;77.69;101579.97;5059050;28;76099;-55
2023/12/26 08:46:30;;;;;;;;;1.00;1.00;;;;;11.94;77.60;101573.75;5060182;28;45359;-55
2023/12/26 08:48:56;;;;;;;;;0.67;0.67;;;;;11.95;78.05;101567.50;5061678;28;59500;-54
2023/12/26 08:51:21;;;;;;;;;0.00;0.00;;;;;11.97;77.72;101580.78;5058864;28;45428;-55
2023/12/26 08:53:47;;;;;;;;;2.00;1.00;;;;;11.97;77.79;101576.31;5060097;28;45225;-55
2023/12/26 08:56:13;;;;;;;;;1.00;0.00;;;;;11.98;77.92;101594.06;5059974;28;45184;-54
2023/12/26 08:58:38;;;;;;;;;1.00;1.00;;;;;11.99;78.02;101589.59;5060278;28;45497;-55
2023/12/26 09:01:04;;;;;;;;;1.33;1.00;;;;;12.01;78.02;101598.41;5060197;28;48647;-58
2023/12/26 09:03:29;;;;;;;;;1.00;1.00;;;;;12.01;78.10;101614.38;5060833;28;46144;-55
2023/12/26 09:05:55;;;;;;;;;3.00;1.00;;;;;12.02;77.97;101616.97;5057520;28;45430;-55
2023/12/26 09:08:20;;;;;;;;;1.00;1.00;;;;;12.04;78.51;101622.25;5058500;28;52443;-56
2023/12/26 09:10:45;;;;;;;;;1.67;1.67;;;;;12.06;78.32;101633.72;5058850;28;45280;-57
2023/12/26 09:13:11;;;;;;;;;1.00;1.00;;;;;12.05;78.60;101626.66;5053164;28;45224;-56
2023/12/26 09:15:36;;;;;;;;;1.67;1.00;;;;;12.04;78.95;101633.78;5056923;28;45414;-55
2023/12/26 09:18:02;;;;;;;;;1.00;1.00;;;;;12.04;78.79;101640.91;5053934;28;45520;-56
2023/12/26 09:20:28;;;;;;;;;0.00;0.00;;;;;12.08;79.05;101650.50;5057271;28;45254;-55
2023/12/26 09:22:53;;;;;;;;;2.00;1.00;;;;;12.12;78.94;101641.44;5060539;28;45694;-56
2023/12/26 09:25:18;;;;;;;;;0.67;0.67;;;;;12.13;78.98;101647.66;5058670;28;45839;-56
2023/12/26 09:27:44;;;;;;;;;3.00;0.67;;;;;12.15;78.83;101644.00;5058666;28;45453;-55
2023/12/26 09:30:10;;;;;;;;;1.00;1.00;;;;;12.15;78.69;101656.44;5060945;28;45335;-57
2023/12/26 09:32:35;;;;;;;;;2.00;0.00;;;;;12.13;79.09;101661.84;5061258;28;45364;-55
2023/12/26 09:35:01;;;;;;;;;0.33;0.33;;;;;12.14;79.11;101668.06;5059040;28;45385;-55
2023/12/26 09:37:26;;;;;;;;;1.00;1.00;;;;;12.13;79.35;101669.84;5056490;28;45307;-54
2023/12/26 09:39:51;;;;;;;;;2.00;1.00;;;;;12.12;79.41;101670.78;5059488;28;45332;-55
2023/12/26 09:42:22;;;;;;;;;0.00;0.00;;;;;12.16;79.58;101680.41;5055869;28;67327;-55
2023/12/26 09:44:48;;;;;;;;;1.00;1.00;;;;;12.19;79.80;101682.03;5058444;28;45485;-55
2023/12/26 09:47:14;;;;;;;;;1.00;0.00;;;;;12.21;79.82;101697.03;5058575;28;45446;-55
2023/12/26 09:49:42;;;;;;;;;2.00;0.67;;;;;12.23;79.98;101689.00;5060526;28;45565;-55
2023/12/26 09:52:08;;;;;;;;;2.00;1.00;;;;;12.24;79.74;101686.25;5055461;28;46269;-55
2023/12/26 09:54:35;;;;;;;;;2.00;1.00;;;;;12.27;79.73;101685.28;5075478;28;45208;-55
2023/12/26 09:57:00;;;;;;;;;1.00;1.00;;;;;12.31;79.55;101688.69;5060531;28;45437;-55
2023/12/26 09:59:26;;;;;;;;;1.00;1.00;;;;;12.31;80.03;101691.34;5059260;28;45233;-55
2023/12/26 10:01:52;;;;;;;;;1.00;1.00;;;;;12.25;79.71;101700.47;5061671;28;46873;-55
2023/12/26 10:04:18;;;;;;;;;3.00;1.00;;;;;12.26;79.88;101718.19;5092072;27;45334;-55
2023/12/26 10:06:43;;;;;;;;;1.00;1.00;;;;;12.28;79.94;101723.47;5059486;28;45545;-54
2023/12/26 10:09:09;;;;;;;;;1.33;1.00;;;;;12.30;80.04;101729.63;5089868;27;70576;-55
2023/12/26 10:11:34;;;;;;;;;2.67;2.00;;;;;12.31;79.63;101726.03;5059056;28;45331;-55
2023/12/26 10:13:59;;;;;;;;;3.67;2.00;;;;;12.32;79.25;101731.28;5057313;28;72007;-56
2023/12/26 10:16:25;;;;;;;;;2.00;2.00;;;;;12.31;79.85;101736.69;5059165;28;45601;-57
2023/12/26 10:18:50;;;;;;;;;3.00;0.33;;;;;12.30;79.64;101738.47;5057774;28;66375;-56
2023/12/26 10:21:17;;;;;;;;;1.00;1.00;;;;;12.29;79.91;101734.06;5059479;28;46105;-58
2023/12/26 10:23:44;;;;;;;;;1.00;1.00;;;;;12.33;79.61;101725.03;5075027;28;45374;-55
2023/12/26 10:26:09;;;;;;;;;3.67;1.67;;;;;12.35;79.26;101724.97;5056761;28;46358;-55
2023/12/26 10:28:38;;;;;;;;;2.00;0.00;;;;;12.34;79.71;101731.22;5058512;28;45439;-57
2023/12/26 10:31:14;;;;;;;;;0.67;0.67;;;;;12.33;79.96;101741.03;5056641;28;45694;-55
2023/12/26 10:33:41;;;;;;;;;2.00;1.00;;;;;12.32;80.19;101741.97;5053881;28;45432;-56
2023/12/26 15:00:02;;;;;;;;;1.00;0.00;;;;;11.56;94.17;101760.09;5136222;27;45353;-49
2023/12/26 15:02:28;;;;;;;;;3.00;1.67;;;;;11.66;93.83;101742.81;5127408;27;45571;-52
2023/12/26 15:04:53;;;;;;;;;1.33;1.33;;;;;11.76;94.04;101743.34;5104327;27;45372;-53
2023/12/26 15:07:19;;;;;;;;;0.67;0.67;;;;;11.85;94.10;101753.63;5122070;27;54215;-52
2023/12/26 15:09:44;;;;;;;;;1.00;1.00;;;;;11.95;93.70;101761.25;5118383;27;46553;-52
2023/12/26 15:12:10;;;;;;;;;2.67;1.00;;;;;12.01;93.72;101764.56;5101762;27;45295;-52
2023/12/26 15:14:36;;;;;;;;;1.00;1.00;;;;;12.08;93.59;101757.19;5127110;27;45467;-53
2023/12/26 15:17:01;;;;;;;;;2.00;2.00;;;;;12.15;93.72;101765.78;5117255;27;51668;-53
2023/12/26 15:19:26;;;;;;;;;2.00;2.00;;;;;12.18;93.44;101761.19;5119926;27;45290;-51
2023/12/26 15:21:52;;;;;;;;;1.67;1.00;;;;;12.21;93.70;101765.53;5115989;27;45320;-51
2023/12/26 15:24:17;;;;;;;;;2.67;2.67;;;;;12.23;93.68;101753.88;5126770;27;45374;-49
2023/12/26 15:26:43;;;;;;;;;2.33;2.33;;;;;12.27;93.37;101749.28;5129225;27;45743;-51
2023/12/26 15:29:09;;;;;;;;;4.33;4.33;;;;;12.30;93.59;101759.81;5116489;27;46244;-52
2023/12/26 15:31:34;;;;;;;;;4.33;4.00;;;;;12.30;93.85;101765.16;5128348;27;45299;-52
2023/12/26 15:33:59;;;;;;;;;3.00;3.00;;;;;12.31;93.98;101766.03;5119849;27;52472;-53
2023/12/26 15:36:25;;;;;;;;;2.67;2.67;;;;;12.30;93.79;101758.97;5116599;27;45391;-52
2023/12/26 15:38:52;;;;;;;;;5.00;3.33;;;;;12.31;93.68;101758.03;5114667;27;54714;-53
2023/12/26 15:41:18;;;;;;;;;3.33;3.00;;;;;12.31;93.56;101753.56;5106886;27;45438;-53